createdAt,value
2022-12-06T00:00:15.161Z,6.85
2022-12-06T00:02:43.073Z,7.32
2022-12-06T00:05:10.992Z,6.72
2022-12-06T00:07:39.736Z,7.30
2022-12-06T00:10:08.952Z,7.68
2022-12-06T00:12:36.856Z,6.72
2022-12-06T00:15:05.225Z,7.13
2022-12-06T00:17:37.644Z,6.40
2022-12-06T00:20:10.662Z,7.15
2022-12-06T00:22:38.539Z,7.05
2022-12-06T00:25:06.924Z,6.78
2022-12-06T00:27:34.807Z,7.00
2022-12-06T00:30:02.723Z,7.43
2022-12-06T00:32:30.673Z,7.30
2022-12-06T00:34:59.938Z,6.78
2022-12-06T00:37:27.874Z,6.95
2022-12-06T00:39:55.841Z,6.97
2022-12-06T00:42:23.707Z,6.78
2022-12-06T00:44:51.570Z,6.88
2022-12-06T00:47:19.465Z,7.03
2022-12-06T00:49:47.424Z,6.80
2022-12-06T00:52:16.664Z,7.30
2022-12-06T00:54:44.542Z,6.53
2022-12-06T00:57:12.437Z,7.22
2022-12-06T00:59:40.356Z,7.20
2022-12-06T01:02:09.567Z,6.85
2022-12-06T01:04:37.636Z,7.22
2022-12-06T01:07:05.521Z,6.55
2022-12-06T01:09:34.813Z,6.97
2022-12-06T01:12:02.669Z,6.68
2022-12-06T01:14:30.529Z,7.47
2022-12-06T01:16:58.466Z,7.07
2022-12-06T01:19:26.490Z,6.97
2022-12-06T01:21:54.376Z,6.93
2022-12-06T01:24:22.204Z,7.00
2022-12-06T01:26:51.408Z,6.78
2022-12-06T01:29:19.315Z,7.00
2022-12-06T01:31:47.172Z,6.55
2022-12-06T01:34:16.138Z,6.75
2022-12-06T01:36:44.136Z,6.57
2022-12-06T01:39:12.646Z,7.20
2022-12-06T01:41:40.637Z,6.88
2022-12-06T01:44:44.239Z,6.85
2022-12-06T01:47:16.622Z,6.80
2022-12-06T01:49:45.312Z,6.47
2022-12-06T01:52:13.528Z,6.55
2022-12-06T01:54:41.377Z,6.60
2022-12-06T01:57:10.327Z,6.90
2022-12-06T01:59:38.194Z,6.53
2022-12-06T02:02:07.447Z,7.03
2022-12-06T02:04:35.346Z,6.35
2022-12-06T02:07:03.190Z,6.90
2022-12-06T02:09:31.228Z,6.53
2022-12-06T02:11:59.471Z,6.65
2022-12-06T02:14:28.465Z,6.60
2022-12-06T02:17:03.502Z,6.50
2022-12-06T02:19:57.848Z,6.80
2022-12-06T02:22:29.515Z,6.50
2022-12-06T02:25:32.796Z,7.00
2022-12-06T02:28:13.465Z,6.90
2022-12-06T02:30:46.288Z,6.90
2022-12-06T02:33:19.673Z,6.72
2022-12-06T02:35:49.370Z,6.35
2022-12-06T02:38:18.608Z,6.20
2022-12-06T02:40:48.427Z,6.70
2022-12-06T02:43:18.558Z,6.60
2022-12-06T02:45:49.094Z,6.70
2022-12-06T02:48:17.086Z,6.63
2022-12-06T02:50:46.261Z,6.57
2022-12-06T02:53:17.253Z,6.75
2022-12-06T02:55:45.217Z,7.05
2022-12-06T02:58:13.095Z,6.68
2022-12-06T03:00:41.913Z,6.93
2022-12-06T03:03:21.270Z,6.55
2022-12-06T03:06:00.149Z,6.60
2022-12-06T03:08:30.549Z,6.68
2022-12-06T03:10:59.623Z,6.50
2022-12-06T03:13:29.697Z,6.80
2022-12-06T03:15:58.781Z,6.80
2022-12-06T03:18:31.851Z,6.70
2022-12-06T03:21:00.904Z,6.38
2022-12-06T03:23:31.287Z,6.90
2022-12-06T03:26:00.348Z,6.68
2022-12-06T03:28:28.227Z,6.40
2022-12-06T03:30:59.299Z,6.97
2022-12-06T03:33:28.613Z,6.75
2022-12-06T03:35:56.547Z,6.55
2022-12-06T03:38:26.509Z,6.78
2022-12-06T03:40:54.442Z,6.72
2022-12-06T03:43:22.281Z,6.57
2022-12-06T03:45:53.619Z,6.50
2022-12-06T03:48:22.742Z,6.40
2022-12-06T03:50:58.479Z,6.07
2022-12-06T03:53:26.769Z,6.20
2022-12-06T03:55:54.684Z,6.57
2022-12-06T03:58:22.572Z,6.65
2022-12-06T04:00:50.384Z,6.47
2022-12-06T04:03:18.314Z,6.47
2022-12-06T04:05:46.393Z,6.60
2022-12-06T04:08:15.757Z,6.30
2022-12-06T04:10:43.721Z,6.13
2022-12-06T04:13:15.460Z,6.38
2022-12-06T04:15:47.287Z,6.60
2022-12-06T04:18:14.507Z,6.65
2022-12-06T04:21:07.311Z,6.30
2022-12-06T04:23:37.377Z,7.03
2022-12-06T04:26:05.721Z,6.47
2022-12-06T04:28:50.933Z,6.38
2022-12-06T04:31:36.583Z,6.25
2022-12-06T04:34:21.862Z,6.55
2022-12-06T04:37:07.327Z,6.80
2022-12-06T04:39:36.639Z,6.30
2022-12-06T04:42:22.569Z,6.25
2022-12-06T04:44:50.401Z,6.65
2022-12-06T04:47:18.369Z,6.25
2022-12-06T04:49:46.202Z,7.03
2022-12-06T04:52:14.150Z,6.53
2022-12-06T04:54:43.497Z,6.75
2022-12-06T04:57:12.568Z,6.70
2022-12-06T04:59:40.834Z,6.80
2022-12-06T05:02:10.010Z,6.50
2022-12-06T05:04:37.869Z,6.65
2022-12-06T05:07:05.736Z,6.65
2022-12-06T05:09:33.685Z,6.55
2022-12-06T05:12:02.889Z,6.50
2022-12-06T05:14:30.786Z,6.53
2022-12-06T05:16:58.905Z,6.47
2022-12-06T05:19:27.616Z,6.72
2022-12-06T05:21:55.472Z,6.57
2022-12-06T05:24:23.358Z,6.00
2022-12-06T05:26:51.226Z,6.95
2022-12-06T05:29:20.902Z,6.32
2022-12-06T05:31:48.837Z,7.07
2022-12-06T05:34:16.721Z,6.82
2022-12-06T05:36:45.975Z,6.50
2022-12-06T05:39:13.941Z,6.65
2022-12-06T05:41:41.783Z,6.85
2022-12-06T05:44:10.566Z,6.90
2022-12-06T05:46:39.754Z,6.45
2022-12-06T05:49:07.637Z,6.60
2022-12-06T05:51:35.613Z,6.90
2022-12-06T05:54:05.864Z,6.78
2022-12-06T05:56:33.811Z,6.50
2022-12-06T05:59:01.710Z,6.60
2022-12-06T06:01:29.553Z,6.70
2022-12-06T06:03:58.736Z,6.50
2022-12-06T06:06:26.624Z,6.75
2022-12-06T06:08:54.998Z,6.57
2022-12-06T06:11:22.929Z,6.65
2022-12-06T06:13:50.798Z,6.50
2022-12-06T06:16:18.764Z,6.68
2022-12-06T06:18:46.771Z,6.22
2022-12-06T06:21:15.956Z,6.80
2022-12-06T06:23:43.833Z,6.50
2022-12-06T06:26:12.544Z,6.70
2022-12-06T06:28:40.404Z,6.72
2022-12-06T06:31:08.448Z,7.28
2022-12-06T06:33:36.530Z,8.70
2022-12-06T06:36:04.739Z,10.30
2022-12-06T06:38:33.976Z,10.90
2022-12-06T06:41:03.095Z,10.70
2022-12-06T06:43:30.937Z,10.88
2022-12-06T06:45:59.501Z,10.30
2022-12-06T06:48:28.580Z,11.35
2022-12-06T06:50:57.884Z,10.40
2022-12-06T06:53:27.862Z,10.05
2022-12-06T06:55:57.286Z,11.07
2022-12-06T06:58:25.158Z,9.63
2022-12-06T07:00:53.922Z,9.68
2022-12-06T07:03:21.888Z,9.50
2022-12-06T07:05:52.917Z,9.05
2022-12-06T07:08:20.930Z,9.68
2022-12-06T07:10:49.571Z,8.77
2022-12-06T07:13:18.859Z,9.48
2022-12-06T07:15:46.753Z,8.82
2022-12-06T07:18:14.621Z,8.98
2022-12-06T07:20:42.638Z,9.57
2022-12-06T07:23:10.500Z,9.13
2022-12-06T07:25:38.444Z,9.18
2022-12-06T07:28:06.640Z,9.05
2022-12-06T07:30:35.958Z,8.75
2022-12-06T07:33:03.911Z,9.07
2022-12-06T07:38:19.971Z,8.48
2022-12-06T07:41:03.881Z,8.45
2022-12-06T07:43:50.722Z,8.30
2022-12-06T07:46:20.007Z,8.85
2022-12-06T07:48:47.917Z,8.65
2022-12-06T07:51:15.792Z,8.63
2022-12-06T07:53:43.699Z,8.73
2022-12-06T07:56:11.923Z,8.60
2022-12-06T07:58:39.841Z,8.25
2022-12-06T08:01:08.024Z,8.02
2022-12-06T08:03:37.279Z,8.40
2022-12-06T08:06:05.427Z,8.40
2022-12-06T08:08:33.310Z,8.13
2022-12-06T08:11:01.228Z,8.13
2022-12-06T08:13:29.306Z,7.80
2022-12-06T08:15:57.409Z,7.35
2022-12-06T08:18:25.581Z,8.13
2022-12-06T08:20:55.238Z,7.95
2022-12-06T08:23:23.093Z,7.82
2022-12-06T08:25:57.919Z,7.78
2022-12-06T08:28:25.904Z,7.75
2022-12-06T08:30:57.075Z,7.75
2022-12-06T08:33:29.250Z,7.50
2022-12-06T08:35:58.483Z,8.13
2022-12-06T08:38:26.477Z,7.72
2022-12-06T08:40:54.328Z,7.75
2022-12-06T08:43:22.546Z,7.85
2022-12-06T08:45:52.418Z,9.73
2022-12-06T08:48:21.346Z,11.27
2022-12-06T08:50:49.230Z,12.35
2022-12-06T08:53:18.489Z,9.60
2022-12-06T08:56:00.350Z,10.02
2022-12-06T08:58:30.106Z,10.73
2022-12-06T09:01:00.694Z,10.45
2022-12-06T09:03:28.569Z,10.45
2022-12-06T09:05:56.403Z,11.63
2022-12-06T09:08:25.624Z,10.73
2022-12-06T09:10:53.563Z,11.18
2022-12-06T09:13:21.506Z,10.85
2022-12-06T09:15:49.391Z,10.07
2022-12-06T09:18:17.321Z,10.73
2022-12-06T09:20:45.181Z,10.10
2022-12-06T09:23:13.077Z,9.30
2022-12-06T09:25:43.508Z,10.13
2022-12-06T09:28:11.680Z,9.80
2022-12-06T09:30:39.519Z,9.50
2022-12-06T09:33:07.361Z,9.65
2022-12-06T09:35:35.200Z,9.27
2022-12-06T09:38:03.776Z,9.80
2022-12-06T09:40:35.384Z,9.50
2022-12-06T09:43:16.305Z,9.02
2022-12-06T09:46:26.743Z,9.10
2022-12-06T09:49:12.426Z,8.73
2022-12-06T09:51:51.640Z,8.77
2022-12-06T09:54:26.585Z,8.95
2022-12-06T09:56:58.369Z,8.75
2022-12-06T09:59:30.414Z,9.35
2022-12-06T10:02:06.143Z,9.93
2022-12-06T10:04:51.883Z,11.07
2022-12-06T10:07:23.243Z,10.98
2022-12-06T10:09:55.795Z,11.40
2022-12-06T10:12:30.633Z,10.65
2022-12-06T10:15:07.572Z,10.80
2022-12-06T10:17:40.933Z,11.25
2022-12-06T10:20:12.037Z,10.93
2022-12-06T10:22:47.896Z,10.82
2022-12-06T10:25:18.568Z,11.07
2022-12-06T10:27:49.325Z,10.80
2022-12-06T10:30:18.709Z,10.75
2022-12-06T10:32:52.192Z,10.55
2022-12-06T10:35:22.733Z,10.40
2022-12-06T10:38:00.282Z,10.88
2022-12-06T10:40:30.173Z,10.75
2022-12-06T10:43:01.349Z,10.07
2022-12-06T10:45:50.271Z,9.93
2022-12-06T10:48:20.557Z,9.75
2022-12-06T10:50:48.585Z,9.65
2022-12-06T10:53:17.233Z,10.07
2022-12-06T10:55:47.077Z,9.63
2022-12-06T10:58:18.187Z,9.63
2022-12-06T11:00:52.300Z,9.07
2022-12-06T11:03:21.818Z,9.18
2022-12-06T11:05:50.343Z,9.20
2022-12-06T11:08:21.948Z,10.18
2022-12-06T11:10:49.922Z,9.50
2022-12-06T11:13:21.446Z,9.25
2022-12-06T11:15:54.122Z,9.35
2022-12-06T11:18:22.161Z,8.63
2022-12-06T11:20:52.306Z,9.10
2022-12-06T11:23:22.956Z,8.63
2022-12-06T11:26:08.090Z,8.90
2022-12-06T11:28:37.644Z,9.02
2022-12-06T11:31:16.918Z,8.57
2022-12-06T11:33:46.503Z,9.20
2022-12-06T11:36:14.392Z,8.82
2022-12-06T11:38:42.679Z,8.80
2022-12-06T11:41:12.737Z,8.15
2022-12-06T11:43:40.631Z,8.23
2022-12-06T11:46:11.524Z,8.30
2022-12-06T11:48:39.433Z,8.02
2022-12-06T11:51:12.234Z,8.23
2022-12-06T11:53:42.041Z,8.00
2022-12-06T11:56:20.638Z,8.57
2022-12-06T11:58:54.001Z,8.45
2022-12-06T12:01:23.252Z,8.00
2022-12-06T12:03:51.271Z,8.10
2022-12-06T12:06:21.293Z,8.40
2022-12-06T12:08:57.627Z,8.35
2022-12-06T12:11:27.605Z,8.35
2022-12-06T12:13:56.877Z,8.95
2022-12-06T12:16:27.530Z,8.02
2022-12-06T12:18:57.363Z,8.43
2022-12-06T12:21:36.462Z,8.75
2022-12-06T12:24:04.545Z,8.82
2022-12-06T12:26:37.194Z,8.38
2022-12-06T12:29:09.403Z,8.70
2022-12-06T12:31:47.032Z,8.52
2022-12-06T12:34:15.753Z,8.30
2022-12-06T12:36:47.858Z,8.68
2022-12-06T12:39:24.120Z,7.97
2022-12-06T12:41:51.992Z,8.25
2022-12-06T12:44:39.323Z,7.78
2022-12-06T12:47:16.850Z,7.88
2022-12-06T12:49:44.718Z,8.35
2022-12-06T12:52:27.647Z,8.35
2022-12-06T12:55:00.509Z,8.30
2022-12-06T12:57:28.606Z,8.20
2022-12-06T12:59:56.459Z,8.15
2022-12-06T13:02:27.999Z,8.43
2022-12-06T13:07:49.557Z,8.02
2022-12-06T13:10:20.155Z,8.50
2022-12-06T13:12:50.081Z,7.95
2022-12-06T13:15:19.766Z,8.52
2022-12-06T13:17:55.103Z,8.48
2022-12-06T13:20:27.785Z,8.95
2022-12-06T13:22:57.681Z,8.80
2022-12-06T13:25:25.555Z,8.48
2022-12-06T13:27:58.575Z,8.40
2022-12-06T13:30:29.953Z,8.73
2022-12-06T13:33:00.596Z,9.00
2022-12-06T13:35:30.030Z,8.13
2022-12-06T13:37:58.530Z,8.82
2022-12-06T13:40:39.129Z,8.60
2022-12-06T13:43:07.903Z,8.32
2022-12-06T13:45:41.129Z,8.35
2022-12-06T13:48:38.725Z,9.02
2022-12-06T13:51:11.399Z,9.13
2022-12-06T13:54:12.942Z,8.10
2022-12-06T13:56:41.648Z,8.30
2022-12-06T13:59:33.555Z,7.93
2022-12-06T14:02:01.665Z,8.13
2022-12-06T14:07:04.260Z,8.27
2022-12-06T14:09:41.180Z,8.38
2022-12-06T14:12:11.156Z,8.30
2022-12-06T14:14:39.037Z,8.20
2022-12-06T14:17:15.824Z,8.43
2022-12-06T14:19:56.125Z,8.80
2022-12-06T14:22:24.719Z,8.40
2022-12-06T14:24:57.231Z,8.23
2022-12-06T14:27:25.921Z,7.88
2022-12-06T14:30:01.798Z,8.10
2022-12-06T14:32:34.726Z,8.85
2022-12-06T14:35:05.301Z,8.07
2022-12-06T14:37:33.155Z,8.43
2022-12-06T14:40:16.707Z,8.25
2022-12-06T14:43:02.719Z,9.02
2022-12-06T14:45:31.607Z,8.45
2022-12-06T14:47:59.737Z,8.55
2022-12-06T14:50:32.206Z,9.02
2022-12-06T14:53:04.351Z,8.15
2022-12-06T14:55:51.829Z,8.40
2022-12-06T14:58:21.599Z,8.73
2022-12-06T15:00:50.654Z,8.60
2022-12-06T15:03:31.945Z,8.70
2022-12-06T15:06:17.482Z,8.38
2022-12-06T15:08:48.144Z,8.63
2022-12-06T15:11:48.835Z,8.77
2022-12-06T15:14:17.865Z,8.82
2022-12-06T15:16:46.471Z,8.88
2022-12-06T15:19:15.335Z,8.60
2022-12-06T15:21:44.526Z,8.38
2022-12-06T15:24:17.342Z,8.63
2022-12-06T15:26:45.265Z,8.63
2022-12-06T15:29:13.185Z,8.38
2022-12-06T15:31:42.688Z,8.95
2022-12-06T15:34:20.379Z,8.80
2022-12-06T15:36:55.936Z,8.60
2022-12-06T15:39:37.173Z,8.70
2022-12-06T15:42:05.307Z,8.70
2022-12-06T15:44:33.247Z,9.05
2022-12-06T15:47:01.119Z,8.85
2022-12-06T15:49:29.655Z,8.68
2022-12-06T15:51:58.893Z,9.00
2022-12-06T15:54:27.069Z,8.80
2022-12-06T15:56:54.934Z,8.57
2022-12-06T15:59:22.806Z,9.05
2022-12-06T16:01:51.803Z,9.32
2022-12-06T16:04:20.739Z,8.45
2022-12-06T16:06:48.737Z,9.13
2022-12-06T16:09:19.040Z,8.88
2022-12-06T16:11:47.010Z,8.68
2022-12-06T16:14:14.934Z,8.80
2022-12-06T16:16:43.760Z,8.82
2022-12-06T16:19:11.743Z,8.90
2022-12-06T16:21:52.184Z,9.35
2022-12-06T16:24:20.607Z,8.32
2022-12-06T16:26:48.549Z,9.25
2022-12-06T16:29:17.843Z,8.55
2022-12-06T16:31:45.916Z,8.98
2022-12-06T16:34:14.066Z,8.45
2022-12-06T16:37:01.084Z,8.77
2022-12-06T16:39:31.256Z,8.35
2022-12-06T16:41:59.155Z,9.07
2022-12-06T16:44:27.039Z,8.55
2022-12-06T16:46:55.023Z,8.70
2022-12-06T16:52:11.582Z,8.88
2022-12-06T16:54:41.623Z,8.55
2022-12-06T16:57:10.258Z,8.68
2022-12-06T16:59:38.133Z,8.45
2022-12-06T17:02:13.246Z,9.27
2022-12-06T17:04:42.757Z,8.98
2022-12-06T17:07:10.621Z,9.00
2022-12-06T17:09:39.836Z,8.85
2022-12-06T17:12:12.761Z,8.65
2022-12-06T17:14:40.681Z,8.85
2022-12-06T17:17:09.742Z,8.73
2022-12-06T17:19:37.792Z,8.68
2022-12-06T17:22:07.301Z,8.38
2022-12-06T17:24:35.234Z,9.82
2022-12-06T17:27:04.641Z,8.65
2022-12-06T17:29:32.565Z,8.55
2022-12-06T17:32:00.451Z,9.07
2022-12-06T17:34:28.493Z,8.75
2022-12-06T17:36:57.447Z,8.50
2022-12-06T17:39:25.486Z,8.95
2022-12-06T17:42:11.109Z,8.90
2022-12-06T17:44:40.620Z,8.80
2022-12-06T17:47:08.758Z,8.55
2022-12-06T17:49:38.303Z,8.55
2022-12-06T17:52:06.598Z,8.70
2022-12-06T17:54:34.488Z,9.00
2022-12-06T17:57:02.425Z,8.43
2022-12-06T17:59:31.965Z,9.45
2022-12-06T18:02:17.865Z,8.60
2022-12-06T18:04:47.375Z,9.02
2022-12-06T18:07:15.684Z,8.82
2022-12-06T18:09:43.688Z,8.90
2022-12-06T18:12:11.947Z,8.15
2022-12-06T18:14:39.853Z,8.98
2022-12-06T18:17:09.079Z,8.60
2022-12-06T18:19:37.051Z,9.00
2022-12-06T18:22:04.945Z,8.88
2022-12-06T18:24:35.827Z,8.70
2022-12-06T18:27:04.784Z,8.73
2022-12-06T18:29:32.911Z,8.90
2022-12-06T18:32:00.860Z,8.88
2022-12-06T18:34:30.203Z,8.77
2022-12-06T18:36:58.150Z,8.55
2022-12-06T18:39:26.355Z,8.80
2022-12-06T18:41:54.998Z,8.70
2022-12-06T18:44:23.037Z,8.88
2022-12-06T18:46:50.943Z,9.27
2022-12-06T18:49:18.835Z,8.70
2022-12-06T18:51:48.125Z,8.68
2022-12-06T18:54:16.023Z,9.15
2022-12-06T18:56:44.261Z,9.70
2022-12-06T18:59:12.315Z,8.93
2022-12-06T19:01:40.776Z,8.93
2022-12-06T19:04:09.657Z,9.15
2022-12-06T19:06:38.757Z,9.18
2022-12-06T19:09:09.327Z,8.48
2022-12-06T19:11:37.943Z,8.65
2022-12-06T19:14:05.960Z,8.93
2022-12-06T19:16:35.661Z,8.48
2022-12-06T19:19:04.030Z,8.77
2022-12-06T19:21:32.592Z,8.98
2022-12-06T19:24:00.595Z,9.02
2022-12-06T19:26:29.989Z,9.30
2022-12-06T19:28:58.092Z,9.20
2022-12-06T19:31:25.958Z,9.18
2022-12-06T19:33:53.896Z,9.50
2022-12-06T19:36:23.069Z,9.50
2022-12-06T19:38:55.467Z,9.52
2022-12-06T19:41:23.336Z,8.57
2022-12-06T19:44:10.397Z,9.18
2022-12-06T19:46:38.378Z,9.40
2022-12-06T19:49:08.180Z,9.18
2022-12-06T19:51:36.710Z,9.85
2022-12-06T19:54:04.905Z,9.80
2022-12-06T19:56:32.802Z,9.68
2022-12-06T19:59:05.457Z,9.30
2022-12-06T20:01:33.419Z,9.70
2022-12-06T20:04:01.404Z,9.45
2022-12-06T20:07:27.520Z,10.38
2022-12-06T20:09:55.524Z,10.07
2022-12-06T20:12:23.507Z,9.60
2022-12-06T20:14:53.199Z,9.85
2022-12-06T20:17:22.801Z,10.15
2022-12-06T20:19:50.882Z,9.73
2022-12-06T20:22:19.743Z,10.07
2022-12-06T20:24:48.316Z,10.10
2022-12-06T20:27:16.297Z,10.35
2022-12-06T20:29:44.279Z,10.82
2022-12-06T20:32:14.066Z,10.23
2022-12-06T20:34:41.974Z,10.45
2022-12-06T20:37:10.569Z,10.20
2022-12-06T20:39:38.443Z,10.63
2022-12-06T20:42:06.946Z,11.02
2022-12-06T20:44:35.537Z,11.15
2022-12-06T20:47:03.614Z,11.38
2022-12-06T20:49:33.001Z,10.75
2022-12-06T20:52:02.874Z,11.20
2022-12-06T20:54:30.956Z,12.18
2022-12-06T20:56:58.871Z,11.70
2022-12-06T20:59:29.259Z,11.35
2022-12-06T21:01:57.170Z,11.90
2022-12-06T21:04:25.946Z,11.57
2022-12-06T21:06:55.223Z,12.23
2022-12-06T21:09:23.252Z,11.50
2022-12-06T21:11:51.254Z,11.63
2022-12-06T21:14:19.187Z,11.93
2022-12-06T21:16:47.095Z,12.27
2022-12-06T21:19:15.929Z,11.95
2022-12-06T21:21:45.621Z,12.35
2022-12-06T21:24:15.953Z,11.77
2022-12-06T21:26:43.810Z,12.38
2022-12-06T21:29:14.899Z,12.40
2022-12-06T21:31:42.775Z,11.75
2022-12-06T21:34:11.423Z,12.65
2022-12-06T21:36:39.354Z,12.02
2022-12-06T21:39:07.406Z,11.70
2022-12-06T21:41:36.636Z,12.40
2022-12-06T21:44:04.621Z,11.90
2022-12-06T21:46:32.572Z,11.70
2022-12-06T21:49:00.962Z,11.68
2022-12-06T21:51:29.611Z,11.75
2022-12-06T21:53:57.611Z,11.85
2022-12-06T21:56:26.317Z,12.55
2022-12-06T21:58:55.629Z,11.73
2022-12-06T22:01:28.126Z,11.95
2022-12-06T22:03:57.247Z,12.05
2022-12-06T22:06:25.963Z,11.48
2022-12-06T22:08:57.513Z,11.70
2022-12-06T22:11:26.654Z,12.13
2022-12-06T22:13:57.286Z,12.60
2022-12-06T22:16:25.308Z,12.13
2022-12-06T22:18:55.195Z,12.23
2022-12-06T22:21:25.237Z,12.40
2022-12-06T22:23:53.307Z,12.07
2022-12-06T22:26:22.277Z,11.55
2022-12-06T22:28:50.179Z,11.45
2022-12-06T22:31:20.416Z,12.10
2022-12-06T22:33:48.742Z,11.65
2022-12-06T22:36:16.802Z,11.70
2022-12-06T22:38:44.906Z,11.38
2022-12-06T22:41:12.824Z,11.65
2022-12-06T22:43:40.691Z,11.30
2022-12-06T22:46:09.942Z,11.77
2022-12-06T22:48:39.636Z,11.50
2022-12-06T22:51:09.389Z,11.07
2022-12-06T22:53:37.311Z,11.60
2022-12-06T22:56:05.503Z,11.25
2022-12-06T22:58:33.424Z,11.10
2022-12-06T23:01:04.681Z,11.20
2022-12-06T23:03:32.643Z,11.05
2022-12-06T23:06:02.130Z,10.80
2022-12-06T23:08:30.096Z,10.77
2022-12-06T23:11:01.802Z,11.23
2022-12-06T23:13:29.783Z,11.07
2022-12-06T23:15:58.561Z,10.43
2022-12-06T23:18:26.673Z,10.80
2022-12-06T23:21:14.008Z,10.73
2022-12-06T23:23:43.628Z,10.75
2022-12-06T23:26:12.519Z,10.55
2022-12-06T23:28:40.381Z,10.10
2022-12-06T23:31:09.169Z,10.65
2022-12-06T23:33:37.090Z,10.68
2022-12-06T23:36:06.374Z,10.13
2022-12-06T23:38:35.762Z,9.93
2022-12-06T23:41:04.715Z,10.27
2022-12-06T23:43:32.613Z,9.65
2022-12-06T23:46:06.940Z,10.05
2022-12-06T23:48:35.657Z,9.50
2022-12-06T23:51:04.234Z,9.18
2022-12-06T23:53:32.262Z,9.70
2022-12-06T23:56:02.001Z,9.60
2022-12-06T23:58:30.084Z,9.20
